ANACAPA ISLAND CA US current weather conditions

sailwx.info

Wind from 315 at 7 knots gusting 13

Air temperature 17.2° C
Dewpoint 14.0° C

Last reported at 2017-Nov-23 06:23 UTC.
Time now 2017-Nov-23 07:37 UTC

Location: N 34°01' W 119°22'.
View on Google Maps.

See reports from other nearby stations

  
Tides and Currents Weather Stations Pressure Air Temp Water Temp Dewpoint Dewpoint Depression Visibility Wind Speed Wind Dir Waves Ship Positions
date/time (UTC)wind fromknots sea level pressurealtimeterstation pressurevisibilityair tempwater tempwave heightnotes
2017-Nov-23 06:23 315 7 gusting 13 17.2
2017-Nov-23 05:23 335 6 gusting 11 18.3
2017-Nov-23 04:23 309 8 gusting 13 21.7
2017-Nov-23 03:23 333 6 gusting 12 21.1
2017-Nov-23 02:23 301 8 gusting 16 22.2
2017-Nov-23 01:23 304 11 gusting 17 19.4
2017-Nov-23 00:23 299 6 gusting 11 21.1
2017-Nov-22 23:23 297 6 gusting 13 23.9
2017-Nov-22 22:23 288 6 gusting 8 26.7
2017-Nov-22 21:23 298 5 gusting 9 26.7
2017-Nov-22 20:23 304 5 gusting 11 23.3
2017-Nov-22 19:23 306 4 gusting 10 23.9
2017-Nov-22 18:23 307 6 gusting 10 21.1
2017-Nov-22 17:23 020 2 gusting 7 23.3
2017-Nov-22 16:23 353 5 gusting 8 20.0
2017-Nov-22 15:23 335 6 gusting 10 18.9
2017-Nov-22 14:23 327 6 gusting 11 16.7
2017-Nov-22 13:23 321 6 gusting 11 17.2
2017-Nov-22 12:23 330 7 gusting 12 18.3
2017-Nov-22 11:23 333 8 gusting 13 17.8
2017-Nov-22 10:23 316 7 gusting 13 16.7
2017-Nov-22 09:23 330 9 gusting 14 16.7
2017-Nov-22 08:23 333 9 gusting 13 18.3
2017-Nov-22 07:23 324 8 gusting 13 17.8
2017-Nov-22 06:23 325 8 gusting 14 17.8
2017-Nov-22 05:23 324 8 gusting 13 17.8
2017-Nov-22 04:23 342 5 gusting 11 18.9
2017-Nov-22 03:23 313 7 gusting 10 17.8
2017-Nov-22 02:23 324 6 gusting 12 17.8
2017-Nov-22 01:23 296 4 gusting 8 18.9
2017-Nov-22 00:23 291 2 gusting 4 21.1
2017-Nov-21 23:23 279 2 gusting 6 22.2
2017-Nov-21 22:23 288 5 gusting 10 20.6
2017-Nov-21 21:23 307 7 gusting 12 19.4
2017-Nov-21 20:23 305 8 gusting 13 19.4
2017-Nov-21 19:23 310 7 gusting 11 19.4
2017-Nov-21 18:23 304 5 gusting 8 18.9
2017-Nov-21 17:23 301 3 gusting 5 18.9
2017-Nov-21 16:23 025 20.0
2017-Nov-21 15:23 136 1 gusting 4 19.4
2017-Nov-21 14:23 097 0 gusting 2 17.2
2017-Nov-21 13:23 037 1 gusting 3 16.7
2017-Nov-21 12:23 096 3 gusting 6 17.2
2017-Nov-21 11:23 339 3 gusting 5 17.2
2017-Nov-21 10:23 294 4 gusting 6 17.8
2017-Nov-21 09:23 336 2 gusting 3 17.2
2017-Nov-21 08:23 343 1 gusting 4 16.7
2017-Nov-21 07:23 357 2 gusting 7 16.7